sensor_id;sensor_type;location;lat;lon;timestamp;P1;durP1;ratioP1;P2;durP2;ratioP2
74369;SDS011;62805;44.644;10.942;2022-12-07T00:01:36;92.80;;;28.63;;
74369;SDS011;62805;44.644;10.942;2022-12-07T00:04:04;90.07;;;30.35;;
74369;SDS011;62805;44.644;10.942;2022-12-07T00:06:34;94.95;;;28.60;;
74369;SDS011;62805;44.644;10.942;2022-12-07T00:09:02;95.57;;;30.80;;
74369;SDS011;62805;44.644;10.942;2022-12-07T00:11:31;88.90;;;30.50;;
74369;SDS011;62805;44.644;10.942;2022-12-07T00:13:58;93.97;;;31.38;;
74369;SDS011;62805;44.644;10.942;2022-12-07T00:16:27;85.13;;;31.23;;
74369;SDS011;62805;44.644;10.942;2022-12-07T00:18:54;81.00;;;28.40;;
74369;SDS011;62805;44.644;10.942;2022-12-07T00:21:21;92.57;;;33.15;;
74369;SDS011;62805;44.644;10.942;2022-12-07T00:26:14;88.40;;;26.60;;
74369;SDS011;62805;44.644;10.942;2022-12-07T00:28:47;81.93;;;26.50;;
74369;SDS011;62805;44.644;10.942;2022-12-07T00:31:14;105.68;;;34.78;;
74369;SDS011;62805;44.644;10.942;2022-12-07T00:33:40;83.72;;;25.20;;
74369;SDS011;62805;44.644;10.942;2022-12-07T00:36:07;77.50;;;26.38;;
74369;SDS011;62805;44.644;10.942;2022-12-07T00:38:35;99.00;;;32.67;;
74369;SDS011;62805;44.644;10.942;2022-12-07T00:41:02;88.18;;;28.73;;
74369;SDS011;62805;44.644;10.942;2022-12-07T00:43:39;86.57;;;27.23;;
74369;SDS011;62805;44.644;10.942;2022-12-07T00:46:05;99.45;;;32.42;;
74369;SDS011;62805;44.644;10.942;2022-12-07T00:48:31;91.15;;;30.17;;
74369;SDS011;62805;44.644;10.942;2022-12-07T00:50:56;87.75;;;27.77;;
74369;SDS011;62805;44.644;10.942;2022-12-07T00:53:22;93.13;;;28.95;;
74369;SDS011;62805;44.644;10.942;2022-12-07T00:55:48;84.50;;;28.80;;
74369;SDS011;62805;44.644;10.942;2022-12-07T00:58:14;77.80;;;26.77;;
74369;SDS011;62805;44.644;10.942;2022-12-07T01:00:40;81.57;;;27.98;;
74369;SDS011;62805;44.644;10.942;2022-12-07T01:03:07;81.88;;;29.40;;
74369;SDS011;62805;44.644;10.942;2022-12-07T01:05:34;78.70;;;27.73;;
74369;SDS011;62805;44.644;10.942;2022-12-07T01:07:59;77.38;;;27.38;;
74369;SDS011;62805;44.644;10.942;2022-12-07T01:10:25;79.40;;;28.25;;
74369;SDS011;62805;44.644;10.942;2022-12-07T01:12:51;81.40;;;28.42;;
74369;SDS011;62805;44.644;10.942;2022-12-07T01:15:16;83.57;;;28.17;;
74369;SDS011;62805;44.644;10.942;2022-12-07T01:17:42;84.55;;;29.90;;
74369;SDS011;62805;44.644;10.942;2022-12-07T01:20:08;72.32;;;27.92;;
74369;SDS011;62805;44.644;10.942;2022-12-07T01:22:37;69.53;;;27.13;;
74369;SDS011;62805;44.644;10.942;2022-12-07T01:25:03;69.57;;;26.92;;
74369;SDS011;62805;44.644;10.942;2022-12-07T01:27:29;70.65;;;26.23;;
74369;SDS011;62805;44.644;10.942;2022-12-07T01:29:55;83.53;;;31.20;;
74369;SDS011;62805;44.644;10.942;2022-12-07T01:32:20;78.65;;;28.08;;
74369;SDS011;62805;44.644;10.942;2022-12-07T01:34:47;75.68;;;28.05;;
74369;SDS011;62805;44.644;10.942;2022-12-07T01:37:14;78.18;;;28.02;;
74369;SDS011;62805;44.644;10.942;2022-12-07T01:39:40;73.22;;;26.20;;
74369;SDS011;62805;44.644;10.942;2022-12-07T01:42:09;78.55;;;26.50;;
74369;SDS011;62805;44.644;10.942;2022-12-07T01:45:14;87.47;;;27.63;;
74369;SDS011;62805;44.644;10.942;2022-12-07T01:47:38;71.05;;;24.80;;
74369;SDS011;62805;44.644;10.942;2022-12-07T01:50:04;73.00;;;25.52;;
74369;SDS011;62805;44.644;10.942;2022-12-07T01:52:31;75.10;;;24.73;;
74369;SDS011;62805;44.644;10.942;2022-12-07T01:57:25;73.75;;;23.60;;
74369;SDS011;62805;44.644;10.942;2022-12-07T01:59:51;73.65;;;24.33;;
74369;SDS011;62805;44.644;10.942;2022-12-07T02:02:18;66.70;;;24.17;;
74369;SDS011;62805;44.644;10.942;2022-12-07T02:04:45;64.97;;;22.40;;
74369;SDS011;62805;44.644;10.942;2022-12-07T02:07:11;69.60;;;23.70;;
74369;SDS011;62805;44.644;10.942;2022-12-07T02:09:37;70.85;;;23.33;;
74369;SDS011;62805;44.644;10.942;2022-12-07T02:12:02;67.63;;;23.30;;
74369;SDS011;62805;44.644;10.942;2022-12-07T02:14:28;64.78;;;22.00;;
74369;SDS011;62805;44.644;10.942;2022-12-07T02:17:37;79.28;;;24.55;;
74369;SDS011;62805;44.644;10.942;2022-12-07T02:20:04;78.13;;;23.08;;
74369;SDS011;62805;44.644;10.942;2022-12-07T02:28:31;91.55;;;27.45;;
74369;SDS011;62805;44.644;10.942;2022-12-07T02:31:18;94.10;;;29.73;;
74369;SDS011;62805;44.644;10.942;2022-12-07T02:33:46;102.88;;;29.13;;
74369;SDS011;62805;44.644;10.942;2022-12-07T02:36:28;99.65;;;29.23;;
74369;SDS011;62805;44.644;10.942;2022-12-07T02:39:07;104.80;;;28.05;;
74369;SDS011;62805;44.644;10.942;2022-12-07T02:41:42;92.97;;;30.17;;
74369;SDS011;62805;44.644;10.942;2022-12-07T02:44:11;89.05;;;26.85;;
74369;SDS011;62805;44.644;10.942;2022-12-07T02:47:00;88.40;;;25.92;;
74369;SDS011;62805;44.644;10.942;2022-12-07T02:49:26;92.88;;;25.90;;
74369;SDS011;62805;44.644;10.942;2022-12-07T02:51:53;86.03;;;24.35;;
74369;SDS011;62805;44.644;10.942;2022-12-07T02:54:19;79.63;;;24.25;;
74369;SDS011;62805;44.644;10.942;2022-12-07T02:56:50;83.82;;;26.23;;
74369;SDS011;62805;44.644;10.942;2022-12-07T03:07:08;83.93;;;25.25;;
74369;SDS011;62805;44.644;10.942;2022-12-07T03:09:42;79.97;;;25.52;;
74369;SDS011;62805;44.644;10.942;2022-12-07T03:12:13;71.03;;;22.90;;
74369;SDS011;62805;44.644;10.942;2022-12-07T03:14:45;82.70;;;25.17;;
74369;SDS011;62805;44.644;10.942;2022-12-07T03:17:23;95.43;;;27.70;;
74369;SDS011;62805;44.644;10.942;2022-12-07T03:19:50;85.90;;;25.98;;
74369;SDS011;62805;44.644;10.942;2022-12-07T03:22:17;83.25;;;24.48;;
74369;SDS011;62805;44.644;10.942;2022-12-07T03:24:47;84.20;;;25.83;;
74369;SDS011;62805;44.644;10.942;2022-12-07T03:28:01;79.72;;;23.50;;
74369;SDS011;62805;44.644;10.942;2022-12-07T03:30:18;79.03;;;24.58;;
74369;SDS011;62805;44.644;10.942;2022-12-07T03:35:29;83.45;;;23.38;;
74369;SDS011;62805;44.644;10.942;2022-12-07T03:37:59;80.93;;;25.17;;
74369;SDS011;62805;44.644;10.942;2022-12-07T03:40:32;82.38;;;24.45;;
74369;SDS011;62805;44.644;10.942;2022-12-07T03:43:00;81.65;;;24.10;;
74369;SDS011;62805;44.644;10.942;2022-12-07T03:45:32;71.90;;;22.58;;
74369;SDS011;62805;44.644;10.942;2022-12-07T03:48:20;66.60;;;22.27;;
74369;SDS011;62805;44.644;10.942;2022-12-07T03:50:54;70.28;;;23.83;;
74369;SDS011;62805;44.644;10.942;2022-12-07T03:53:26;81.70;;;26.92;;
74369;SDS011;62805;44.644;10.942;2022-12-07T03:56:05;77.60;;;25.48;;
74369;SDS011;62805;44.644;10.942;2022-12-07T03:58:31;88.50;;;27.48;;
74369;SDS011;62805;44.644;10.942;2022-12-07T04:00:58;72.80;;;24.77;;
74369;SDS011;62805;44.644;10.942;2022-12-07T04:03:23;80.60;;;27.73;;
74369;SDS011;62805;44.644;10.942;2022-12-07T04:05:48;71.97;;;25.70;;
74369;SDS011;62805;44.644;10.942;2022-12-07T04:08:14;78.35;;;25.30;;
74369;SDS011;62805;44.644;10.942;2022-12-07T04:10:40;70.85;;;24.15;;
74369;SDS011;62805;44.644;10.942;2022-12-07T04:13:05;75.78;;;26.30;;
74369;SDS011;62805;44.644;10.942;2022-12-07T04:15:31;79.20;;;25.95;;
74369;SDS011;62805;44.644;10.942;2022-12-07T04:17:56;80.22;;;28.27;;
74369;SDS011;62805;44.644;10.942;2022-12-07T04:20:21;82.20;;;27.00;;
74369;SDS011;62805;44.644;10.942;2022-12-07T04:22:47;73.25;;;24.33;;
74369;SDS011;62805;44.644;10.942;2022-12-07T04:25:12;78.55;;;25.23;;
74369;SDS011;62805;44.644;10.942;2022-12-07T04:27:38;73.07;;;24.65;;
74369;SDS011;62805;44.644;10.942;2022-12-07T04:30:03;77.07;;;27.33;;
74369;SDS011;62805;44.644;10.942;2022-12-07T04:32:29;67.65;;;24.08;;
74369;SDS011;62805;44.644;10.942;2022-12-07T04:34:55;74.45;;;24.73;;
74369;SDS011;62805;44.644;10.942;2022-12-07T04:37:20;67.40;;;24.50;;
74369;SDS011;62805;44.644;10.942;2022-12-07T04:39:46;65.80;;;24.98;;
74369;SDS011;62805;44.644;10.942;2022-12-07T04:42:12;66.90;;;25.90;;
74369;SDS011;62805;44.644;10.942;2022-12-07T04:44:38;62.83;;;24.45;;
74369;SDS011;62805;44.644;10.942;2022-12-07T04:47:03;62.78;;;25.45;;
74369;SDS011;62805;44.644;10.942;2022-12-07T04:49:29;67.95;;;25.75;;
74369;SDS011;62805;44.644;10.942;2022-12-07T04:51:55;66.63;;;25.55;;
74369;SDS011;62805;44.644;10.942;2022-12-07T04:54:21;70.00;;;26.75;;
74369;SDS011;62805;44.644;10.942;2022-12-07T04:56:46;66.82;;;26.42;;
74369;SDS011;62805;44.644;10.942;2022-12-07T04:59:12;73.85;;;26.10;;
74369;SDS011;62805;44.644;10.942;2022-12-07T05:01:39;71.90;;;30.27;;
74369;SDS011;62805;44.644;10.942;2022-12-07T05:04:04;74.68;;;27.15;;
74369;SDS011;62805;44.644;10.942;2022-12-07T05:06:30;76.88;;;28.17;;
74369;SDS011;62805;44.644;10.942;2022-12-07T05:08:57;73.80;;;28.38;;
74369;SDS011;62805;44.644;10.942;2022-12-07T05:11:26;82.45;;;29.08;;
74369;SDS011;62805;44.644;10.942;2022-12-07T05:14:24;78.32;;;28.70;;
74369;SDS011;62805;44.644;10.942;2022-12-07T05:16:50;87.90;;;28.63;;
74369;SDS011;62805;44.644;10.942;2022-12-07T05:19:16;74.78;;;28.17;;
74369;SDS011;62805;44.644;10.942;2022-12-07T05:21:42;73.40;;;27.40;;
74369;SDS011;62805;44.644;10.942;2022-12-07T05:24:08;83.03;;;28.98;;
74369;SDS011;62805;44.644;10.942;2022-12-07T05:26:35;76.45;;;29.15;;
74369;SDS011;62805;44.644;10.942;2022-12-07T05:29:00;69.25;;;27.63;;
74369;SDS011;62805;44.644;10.942;2022-12-07T05:31:26;71.72;;;27.00;;
74369;SDS011;62805;44.644;10.942;2022-12-07T05:33:52;70.28;;;27.60;;
74369;SDS011;62805;44.644;10.942;2022-12-07T05:36:18;74.63;;;27.88;;
74369;SDS011;62805;44.644;10.942;2022-12-07T05:38:44;75.20;;;27.23;;
74369;SDS011;62805;44.644;10.942;2022-12-07T05:41:11;70.13;;;27.13;;
74369;SDS011;62805;44.644;10.942;2022-12-07T05:43:58;67.90;;;27.40;;
74369;SDS011;62805;44.644;10.942;2022-12-07T05:46:23;73.82;;;27.35;;
74369;SDS011;62805;44.644;10.942;2022-12-07T05:48:49;73.03;;;28.63;;
74369;SDS011;62805;44.644;10.942;2022-12-07T05:51:15;58.97;;;24.30;;
74369;SDS011;62805;44.644;10.942;2022-12-07T05:53:40;76.82;;;27.02;;
74369;SDS011;62805;44.644;10.942;2022-12-07T05:56:06;64.35;;;26.67;;
74369;SDS011;62805;44.644;10.942;2022-12-07T05:58:31;59.30;;;25.40;;
74369;SDS011;62805;44.644;10.942;2022-12-07T06:01:15;53.13;;;22.38;;
74369;SDS011;62805;44.644;10.942;2022-12-07T06:03:40;64.93;;;24.70;;
74369;SDS011;62805;44.644;10.942;2022-12-07T06:06:06;56.25;;;23.15;;
74369;SDS011;62805;44.644;10.942;2022-12-07T06:08:31;67.38;;;26.23;;
74369;SDS011;62805;44.644;10.942;2022-12-07T06:10:57;61.47;;;25.88;;
74369;SDS011;62805;44.644;10.942;2022-12-07T06:13:41;59.67;;;25.92;;
74369;SDS011;62805;44.644;10.942;2022-12-07T06:16:06;63.33;;;26.38;;
74369;SDS011;62805;44.644;10.942;2022-12-07T06:18:32;57.45;;;24.50;;
74369;SDS011;62805;44.644;10.942;2022-12-07T06:20:57;57.75;;;21.70;;
74369;SDS011;62805;44.644;10.942;2022-12-07T06:23:24;57.08;;;22.08;;
74369;SDS011;62805;44.644;10.942;2022-12-07T06:25:49;51.38;;;22.23;;
74369;SDS011;62805;44.644;10.942;2022-12-07T06:28:15;53.50;;;24.87;;
74369;SDS011;62805;44.644;10.942;2022-12-07T06:30:40;50.90;;;20.70;;
74369;SDS011;62805;44.644;10.942;2022-12-07T06:33:05;56.70;;;21.07;;
74369;SDS011;62805;44.644;10.942;2022-12-07T06:35:32;51.47;;;21.55;;
74369;SDS011;62805;44.644;10.942;2022-12-07T06:37:58;42.30;;;19.02;;
74369;SDS011;62805;44.644;10.942;2022-12-07T06:40:23;48.25;;;19.13;;
74369;SDS011;62805;44.644;10.942;2022-12-07T06:42:48;49.40;;;20.10;;
74369;SDS011;62805;44.644;10.942;2022-12-07T06:45:14;52.27;;;20.37;;
74369;SDS011;62805;44.644;10.942;2022-12-07T06:47:39;47.03;;;19.73;;
74369;SDS011;62805;44.644;10.942;2022-12-07T06:50:05;48.72;;;20.30;;
74369;SDS011;62805;44.644;10.942;2022-12-07T06:52:32;50.30;;;20.75;;
74369;SDS011;62805;44.644;10.942;2022-12-07T06:54:58;47.03;;;19.33;;
74369;SDS011;62805;44.644;10.942;2022-12-07T06:57:23;47.15;;;19.35;;
74369;SDS011;62805;44.644;10.942;2022-12-07T06:59:49;44.25;;;19.15;;
74369;SDS011;62805;44.644;10.942;2022-12-07T07:02:14;44.85;;;20.45;;
74369;SDS011;62805;44.644;10.942;2022-12-07T07:04:40;48.08;;;20.85;;
74369;SDS011;62805;44.644;10.942;2022-12-07T07:07:05;50.00;;;21.43;;
74369;SDS011;62805;44.644;10.942;2022-12-07T07:09:30;49.63;;;20.85;;
74369;SDS011;62805;44.644;10.942;2022-12-07T07:11:56;45.00;;;20.35;;
74369;SDS011;62805;44.644;10.942;2022-12-07T07:14:21;45.38;;;19.88;;
74369;SDS011;62805;44.644;10.942;2022-12-07T07:16:47;37.55;;;16.17;;
74369;SDS011;62805;44.644;10.942;2022-12-07T07:19:12;58.60;;;23.15;;
74369;SDS011;62805;44.644;10.942;2022-12-07T07:21:37;61.08;;;27.33;;
74369;SDS011;62805;44.644;10.942;2022-12-07T07:24:03;67.27;;;28.00;;
74369;SDS011;62805;44.644;10.942;2022-12-07T07:26:28;62.08;;;25.33;;
74369;SDS011;62805;44.644;10.942;2022-12-07T07:28:55;48.20;;;19.55;;
74369;SDS011;62805;44.644;10.942;2022-12-07T07:31:20;67.88;;;26.55;;
74369;SDS011;62805;44.644;10.942;2022-12-07T07:33:46;66.47;;;26.73;;
74369;SDS011;62805;44.644;10.942;2022-12-07T07:36:12;53.75;;;23.17;;
74369;SDS011;62805;44.644;10.942;2022-12-07T07:38:37;69.45;;;27.15;;
74369;SDS011;62805;44.644;10.942;2022-12-07T07:41:03;58.17;;;24.65;;
74369;SDS011;62805;44.644;10.942;2022-12-07T07:43:28;57.75;;;24.00;;
74369;SDS011;62805;44.644;10.942;2022-12-07T07:45:54;53.70;;;22.73;;
74369;SDS011;62805;44.644;10.942;2022-12-07T07:48:19;53.58;;;24.02;;
74369;SDS011;62805;44.644;10.942;2022-12-07T07:50:45;60.08;;;24.80;;
74369;SDS011;62805;44.644;10.942;2022-12-07T07:53:10;52.43;;;26.80;;
74369;SDS011;62805;44.644;10.942;2022-12-07T07:55:36;64.93;;;28.38;;
74369;SDS011;62805;44.644;10.942;2022-12-07T07:58:01;62.93;;;27.50;;
74369;SDS011;62805;44.644;10.942;2022-12-07T08:00:26;57.00;;;25.52;;
74369;SDS011;62805;44.644;10.942;2022-12-07T08:02:52;56.90;;;25.05;;
74369;SDS011;62805;44.644;10.942;2022-12-07T08:05:17;45.55;;;20.52;;
74369;SDS011;62805;44.644;10.942;2022-12-07T08:07:43;58.80;;;24.95;;
74369;SDS011;62805;44.644;10.942;2022-12-07T08:10:09;52.50;;;24.35;;
74369;SDS011;62805;44.644;10.942;2022-12-07T08:12:37;48.67;;;22.00;;
74369;SDS011;62805;44.644;10.942;2022-12-07T08:15:23;49.13;;;22.08;;
74369;SDS011;62805;44.644;10.942;2022-12-07T08:17:49;58.83;;;26.85;;
74369;SDS011;62805;44.644;10.942;2022-12-07T08:20:15;52.45;;;23.02;;
74369;SDS011;62805;44.644;10.942;2022-12-07T08:22:40;57.27;;;24.80;;
74369;SDS011;62805;44.644;10.942;2022-12-07T08:25:05;56.53;;;27.10;;
74369;SDS011;62805;44.644;10.942;2022-12-07T08:27:31;53.40;;;22.88;;
74369;SDS011;62805;44.644;10.942;2022-12-07T08:29:56;56.08;;;25.00;;
74369;SDS011;62805;44.644;10.942;2022-12-07T08:32:22;62.87;;;28.37;;
74369;SDS011;62805;44.644;10.942;2022-12-07T08:34:47;60.63;;;27.05;;
74369;SDS011;62805;44.644;10.942;2022-12-07T08:37:13;53.58;;;20.80;;
74369;SDS011;62805;44.644;10.942;2022-12-07T08:39:38;58.83;;;24.42;;
74369;SDS011;62805;44.644;10.942;2022-12-07T08:42:04;60.60;;;23.60;;
74369;SDS011;62805;44.644;10.942;2022-12-07T08:44:29;59.50;;;25.08;;
74369;SDS011;62805;44.644;10.942;2022-12-07T08:46:58;56.85;;;23.90;;
74369;SDS011;62805;44.644;10.942;2022-12-07T08:49:31;57.13;;;24.92;;
74369;SDS011;62805;44.644;10.942;2022-12-07T08:51:59;67.03;;;34.15;;
74369;SDS011;62805;44.644;10.942;2022-12-07T08:54:25;53.17;;;26.38;;
74369;SDS011;62805;44.644;10.942;2022-12-07T08:56:50;67.50;;;27.33;;
74369;SDS011;62805;44.644;10.942;2022-12-07T08:59:17;54.95;;;24.13;;
74369;SDS011;62805;44.644;10.942;2022-12-07T09:01:43;60.83;;;25.17;;
74369;SDS011;62805;44.644;10.942;2022-12-07T09:04:08;56.25;;;24.23;;
74369;SDS011;62805;44.644;10.942;2022-12-07T09:06:34;60.20;;;27.58;;
74369;SDS011;62805;44.644;10.942;2022-12-07T09:08:59;61.55;;;26.05;;
74369;SDS011;62805;44.644;10.942;2022-12-07T09:11:26;54.50;;;22.40;;
74369;SDS011;62805;44.644;10.942;2022-12-07T09:13:52;59.88;;;24.58;;
74369;SDS011;62805;44.644;10.942;2022-12-07T09:16:19;45.10;;;19.70;;
74369;SDS011;62805;44.644;10.942;2022-12-07T09:18:45;55.33;;;25.10;;
74369;SDS011;62805;44.644;10.942;2022-12-07T09:21:10;52.40;;;23.17;;
74369;SDS011;62805;44.644;10.942;2022-12-07T09:23:35;50.85;;;23.52;;
74369;SDS011;62805;44.644;10.942;2022-12-07T09:26:02;57.78;;;24.20;;
74369;SDS011;62805;44.644;10.942;2022-12-07T09:28:28;59.85;;;25.25;;
74369;SDS011;62805;44.644;10.942;2022-12-07T09:30:53;50.70;;;21.67;;
74369;SDS011;62805;44.644;10.942;2022-12-07T09:33:18;57.40;;;25.80;;
74369;SDS011;62805;44.644;10.942;2022-12-07T09:35:45;50.92;;;23.38;;
74369;SDS011;62805;44.644;10.942;2022-12-07T09:38:14;56.15;;;25.02;;
74369;SDS011;62805;44.644;10.942;2022-12-07T09:40:40;56.22;;;26.13;;
74369;SDS011;62805;44.644;10.942;2022-12-07T09:43:41;55.38;;;23.80;;
74369;SDS011;62805;44.644;10.942;2022-12-07T09:48:29;50.57;;;23.37;;
74369;SDS011;62805;44.644;10.942;2022-12-07T09:50:57;53.95;;;22.15;;
74369;SDS011;62805;44.644;10.942;2022-12-07T09:53:28;55.17;;;24.83;;
74369;SDS011;62805;44.644;10.942;2022-12-07T09:55:55;46.35;;;22.13;;
74369;SDS011;62805;44.644;10.942;2022-12-07T09:58:24;46.30;;;22.48;;
74369;SDS011;62805;44.644;10.942;2022-12-07T10:00:53;50.55;;;24.60;;
74369;SDS011;62805;44.644;10.942;2022-12-07T10:03:21;52.70;;;23.50;;
74369;SDS011;62805;44.644;10.942;2022-12-07T10:05:48;53.25;;;22.58;;
74369;SDS011;62805;44.644;10.942;2022-12-07T10:08:15;48.85;;;22.48;;
74369;SDS011;62805;44.644;10.942;2022-12-07T10:10:44;46.20;;;20.85;;
74369;SDS011;62805;44.644;10.942;2022-12-07T10:13:15;48.95;;;21.55;;
74369;SDS011;62805;44.644;10.942;2022-12-07T10:15:50;52.53;;;23.20;;
74369;SDS011;62805;44.644;10.942;2022-12-07T10:18:41;54.70;;;24.75;;
74369;SDS011;62805;44.644;10.942;2022-12-07T10:21:19;51.55;;;21.20;;
74369;SDS011;62805;44.644;10.942;2022-12-07T10:24:08;50.13;;;23.05;;
74369;SDS011;62805;44.644;10.942;2022-12-07T10:32:02;52.25;;;23.25;;
74369;SDS011;62805;44.644;10.942;2022-12-07T10:34:51;50.45;;;22.15;;
74369;SDS011;62805;44.644;10.942;2022-12-07T10:37:55;38.13;;;18.30;;
74369;SDS011;62805;44.644;10.942;2022-12-07T10:43:03;50.60;;;22.85;;
74369;SDS011;62805;44.644;10.942;2022-12-07T11:09:43;44.13;;;21.92;;
74369;SDS011;62805;44.644;10.942;2022-12-07T11:17:26;40.33;;;19.85;;
74369;SDS011;62805;44.644;10.942;2022-12-07T11:25:17;38.72;;;20.60;;
74369;SDS011;62805;44.644;10.942;2022-12-07T11:30:23;40.15;;;21.30;;
74369;SDS011;62805;44.644;10.942;2022-12-07T11:33:02;42.13;;;19.33;;
74369;SDS011;62805;44.644;10.942;2022-12-07T11:35:46;46.90;;;27.30;;
74369;SDS011;62805;44.644;10.942;2022-12-07T11:41:08;30.55;;;15.30;;
74369;SDS011;62805;44.644;10.942;2022-12-07T11:43:45;42.15;;;20.35;;
74369;SDS011;62805;44.644;10.942;2022-12-07T11:46:17;42.30;;;19.45;;
74369;SDS011;62805;44.644;10.942;2022-12-07T11:48:55;37.60;;;18.25;;
74369;SDS011;62805;44.644;10.942;2022-12-07T11:51:24;40.85;;;18.52;;
74369;SDS011;62805;44.644;10.942;2022-12-07T11:53:52;35.70;;;17.50;;
74369;SDS011;62805;44.644;10.942;2022-12-07T11:58:47;39.50;;;19.33;;
74369;SDS011;62805;44.644;10.942;2022-12-07T12:02:07;32.33;;;17.02;;
74369;SDS011;62805;44.644;10.942;2022-12-07T12:04:25;22.42;;;11.57;;
74369;SDS011;62805;44.644;10.942;2022-12-07T12:06:55;39.08;;;19.75;;
74369;SDS011;62805;44.644;10.942;2022-12-07T12:22:36;35.80;;;17.60;;
74369;SDS011;62805;44.644;10.942;2022-12-07T12:25:07;38.00;;;20.05;;
74369;SDS011;62805;44.644;10.942;2022-12-07T12:27:45;44.50;;;20.17;;
74369;SDS011;62805;44.644;10.942;2022-12-07T12:30:57;33.40;;;18.83;;
74369;SDS011;62805;44.644;10.942;2022-12-07T12:33:02;34.00;;;16.70;;
74369;SDS011;62805;44.644;10.942;2022-12-07T12:35:34;35.08;;;17.55;;
74369;SDS011;62805;44.644;10.942;2022-12-07T12:40:53;34.88;;;17.60;;
74369;SDS011;62805;44.644;10.942;2022-12-07T12:51:46;33.67;;;17.10;;
74369;SDS011;62805;44.644;10.942;2022-12-07T12:56:43;33.47;;;17.90;;
74369;SDS011;62805;44.644;10.942;2022-12-07T13:01:46;30.63;;;16.33;;
74369;SDS011;62805;44.644;10.942;2022-12-07T13:12:59;39.17;;;19.75;;
74369;SDS011;62805;44.644;10.942;2022-12-07T13:15:52;36.58;;;19.27;;
74369;SDS011;62805;44.644;10.942;2022-12-07T13:18:38;38.05;;;17.15;;
74369;SDS011;62805;44.644;10.942;2022-12-07T13:23:33;38.35;;;18.98;;
74369;SDS011;62805;44.644;10.942;2022-12-07T13:31:40;38.38;;;20.08;;
74369;SDS011;62805;44.644;10.942;2022-12-07T13:36:55;39.35;;;19.20;;
74369;SDS011;62805;44.644;10.942;2022-12-07T13:39:21;35.78;;;19.30;;
74369;SDS011;62805;44.644;10.942;2022-12-07T13:41:49;40.63;;;19.00;;
74369;SDS011;62805;44.644;10.942;2022-12-07T13:44:18;36.15;;;18.27;;
74369;SDS011;62805;44.644;10.942;2022-12-07T13:49:22;37.67;;;19.27;;
74369;SDS011;62805;44.644;10.942;2022-12-07T13:51:49;44.25;;;19.25;;
74369;SDS011;62805;44.644;10.942;2022-12-07T13:54:15;43.83;;;21.52;;
74369;SDS011;62805;44.644;10.942;2022-12-07T13:56:41;43.53;;;21.15;;
74369;SDS011;62805;44.644;10.942;2022-12-07T13:59:12;39.33;;;21.67;;
74369;SDS011;62805;44.644;10.942;2022-12-07T14:01:39;41.67;;;19.77;;
74369;SDS011;62805;44.644;10.942;2022-12-07T14:04:18;40.40;;;20.52;;
74369;SDS011;62805;44.644;10.942;2022-12-07T14:06:52;37.00;;;18.65;;
74369;SDS011;62805;44.644;10.942;2022-12-07T14:09:22;32.72;;;15.48;;
74369;SDS011;62805;44.644;10.942;2022-12-07T14:11:50;38.63;;;18.25;;
74369;SDS011;62805;44.644;10.942;2022-12-07T14:16:45;41.22;;;19.48;;
74369;SDS011;62805;44.644;10.942;2022-12-07T14:27:38;40.15;;;21.23;;
74369;SDS011;62805;44.644;10.942;2022-12-07T14:30:04;34.90;;;18.33;;
74369;SDS011;62805;44.644;10.942;2022-12-07T14:32:30;40.28;;;20.55;;
74369;SDS011;62805;44.644;10.942;2022-12-07T14:35:18;39.45;;;20.17;;
74369;SDS011;62805;44.644;10.942;2022-12-07T14:37:43;34.35;;;17.73;;
74369;SDS011;62805;44.644;10.942;2022-12-07T14:42:39;34.22;;;18.67;;
74369;SDS011;62805;44.644;10.942;2022-12-07T14:45:05;34.05;;;17.23;;
74369;SDS011;62805;44.644;10.942;2022-12-07T14:47:31;37.00;;;18.38;;
74369;SDS011;62805;44.644;10.942;2022-12-07T14:49:57;35.60;;;17.40;;
74369;SDS011;62805;44.644;10.942;2022-12-07T14:52:23;38.75;;;18.50;;
74369;SDS011;62805;44.644;10.942;2022-12-07T14:54:51;32.60;;;16.23;;
74369;SDS011;62805;44.644;10.942;2022-12-07T14:57:17;32.58;;;17.88;;
74369;SDS011;62805;44.644;10.942;2022-12-07T14:59:43;35.22;;;17.08;;
74369;SDS011;62805;44.644;10.942;2022-12-07T15:02:10;34.20;;;17.60;;
74369;SDS011;62805;44.644;10.942;2022-12-07T15:04:40;35.95;;;19.55;;
74369;SDS011;62805;44.644;10.942;2022-12-07T15:07:08;35.55;;;18.80;;
74369;SDS011;62805;44.644;10.942;2022-12-07T15:09:36;36.83;;;18.50;;
74369;SDS011;62805;44.644;10.942;2022-12-07T15:12:01;32.47;;;17.23;;
74369;SDS011;62805;44.644;10.942;2022-12-07T15:14:28;40.55;;;20.92;;
74369;SDS011;62805;44.644;10.942;2022-12-07T15:16:54;40.95;;;19.67;;
74369;SDS011;62805;44.644;10.942;2022-12-07T15:19:20;38.28;;;18.98;;
74369;SDS011;62805;44.644;10.942;2022-12-07T15:21:49;37.65;;;19.63;;
74369;SDS011;62805;44.644;10.942;2022-12-07T15:24:15;43.83;;;21.15;;
74369;SDS011;62805;44.644;10.942;2022-12-07T15:26:40;37.58;;;16.73;;
74369;SDS011;62805;44.644;10.942;2022-12-07T15:29:06;32.95;;;17.02;;
74369;SDS011;62805;44.644;10.942;2022-12-07T15:31:32;38.22;;;18.45;;
74369;SDS011;62805;44.644;10.942;2022-12-07T15:33:58;32.30;;;16.30;;
74369;SDS011;62805;44.644;10.942;2022-12-07T15:36:25;40.38;;;18.80;;
74369;SDS011;62805;44.644;10.942;2022-12-07T15:38:53;43.20;;;18.15;;
74369;SDS011;62805;44.644;10.942;2022-12-07T15:41:19;34.33;;;16.90;;
74369;SDS011;62805;44.644;10.942;2022-12-07T15:43:45;42.00;;;19.13;;
74369;SDS011;62805;44.644;10.942;2022-12-07T15:46:30;36.75;;;16.75;;
74369;SDS011;62805;44.644;10.942;2022-12-07T15:48:56;35.78;;;18.40;;
74369;SDS011;62805;44.644;10.942;2022-12-07T15:51:22;33.55;;;16.50;;
74369;SDS011;62805;44.644;10.942;2022-12-07T15:53:48;36.15;;;16.98;;
74369;SDS011;62805;44.644;10.942;2022-12-07T15:56:13;31.30;;;15.47;;
74369;SDS011;62805;44.644;10.942;2022-12-07T15:58:39;39.95;;;17.83;;
74369;SDS011;62805;44.644;10.942;2022-12-07T16:01:11;40.70;;;19.20;;
74369;SDS011;62805;44.644;10.942;2022-12-07T16:03:37;35.47;;;16.73;;
74369;SDS011;62805;44.644;10.942;2022-12-07T16:06:03;32.13;;;14.65;;
74369;SDS011;62805;44.644;10.942;2022-12-07T16:08:29;34.05;;;16.40;;
74369;SDS011;62805;44.644;10.942;2022-12-07T16:10:54;36.35;;;17.77;;
74369;SDS011;62805;44.644;10.942;2022-12-07T16:13:19;39.93;;;19.23;;
74369;SDS011;62805;44.644;10.942;2022-12-07T16:15:46;36.78;;;19.00;;
74369;SDS011;62805;44.644;10.942;2022-12-07T16:18:11;39.40;;;19.35;;
74369;SDS011;62805;44.644;10.942;2022-12-07T16:20:37;37.80;;;17.48;;
74369;SDS011;62805;44.644;10.942;2022-12-07T16:23:02;35.83;;;18.25;;
74369;SDS011;62805;44.644;10.942;2022-12-07T16:25:28;37.85;;;17.85;;
74369;SDS011;62805;44.644;10.942;2022-12-07T16:27:53;31.90;;;15.85;;
74369;SDS011;62805;44.644;10.942;2022-12-07T16:30:19;40.78;;;19.38;;
74369;SDS011;62805;44.644;10.942;2022-12-07T16:32:44;43.72;;;20.98;;
74369;SDS011;62805;44.644;10.942;2022-12-07T16:35:10;40.92;;;19.33;;
74369;SDS011;62805;44.644;10.942;2022-12-07T16:37:36;40.53;;;20.30;;